map of AHB home
AHB - Airport
Location
City:  Abha, Saudi Arabia
Near (Alt.):Khamis Mushayat
Name:Abha Airport
ICAO:OEAB
IATA:AHB

Details
Type:Airport (Aerodrome, Airfield)
Use:Public/Civil, International (customs port of entry)
Latitude:1814'25"N (18.240278)
Longitude:4239'23"E (42.656389)
Elevation:6858 ft (2090 m)
Variation:2.77E (WMM2015 magnetic declination)
0.05 annual change
Runways:1
Longest:10991 × 148 ft (3350 × 45 m), paved

Time
Time Zone:UTC+3
Local Time:

Weather
METAR:OEAB 141200Z 20012KT CAVOK 21/01 Q1023 NOSIG

Related Locations
Nearby:
Farthest:PUK: 12427 mi / 20000 km
Pukarua, PF

Find:

   beyond  
but within

Other Information
Maps:
NOTAMs:
Links:
Sources:

  
flag of Saudi Arabia   

Sectional Chart

Flight Planning
at skyvector.com

Satellite Image

Google Maps Satellite view

 

Copyright © 2004-2017 Karl L. Swartz. All rights reserved.
The Great Circle Mapper name and logo are trademarks of the Great Circle Mapper.
All other trademarks mentioned herein belong to their respective owners.
Please see credits for attibutions and further copyright information.

  Follow gcmap on Facebook Follow gcmap on Twitter Follow gcmap on Google+ GCmap on LinkedIn

hCard Microformat

Geo Microformat